sensor_id;sensor_type;location;lat;lon;timestamp;pressure;altitude;pressure_sealevel;temperature;humidity
81057;BME280;70563;50.084;14.468;2023-07-31T00:00:08;98569.88;;;13.99;79.93
81057;BME280;70563;50.084;14.468;2023-07-31T00:02:36;98569.88;;;13.99;79.63
81057;BME280;70563;50.084;14.468;2023-07-31T00:05:02;98581.34;;;13.87;79.40
81057;BME280;70563;50.084;14.468;2023-07-31T00:07:27;98567.03;;;13.88;79.19
81057;BME280;70563;50.084;14.468;2023-07-31T00:09:53;98575.41;;;13.85;79.95
81057;BME280;70563;50.084;14.468;2023-07-31T00:12:19;98579.09;;;13.77;79.54
81057;BME280;70563;50.084;14.468;2023-07-31T00:14:45;98574.81;;;13.83;79.75
81057;BME280;70563;50.084;14.468;2023-07-31T00:17:10;98581.34;;;13.87;79.10
81057;BME280;70563;50.084;14.468;2023-07-31T00:19:36;98580.72;;;13.85;79.50
81057;BME280;70563;50.084;14.468;2023-07-31T00:22:01;98575.22;;;13.79;79.81
81057;BME280;70563;50.084;14.468;2023-07-31T00:24:26;98577.69;;;13.74;80.30
81057;BME280;70563;50.084;14.468;2023-07-31T00:26:52;98578.69;;;13.67;80.76
81057;BME280;70563;50.084;14.468;2023-07-31T00:29:17;98578.47;;;13.68;80.27
81057;BME280;70563;50.084;14.468;2023-07-31T00:31:42;98571.56;;;13.74;78.66
81057;BME280;70563;50.084;14.468;2023-07-31T00:34:08;98568.09;;;13.67;79.00
81057;BME280;70563;50.084;14.468;2023-07-31T00:36:33;98577.69;;;13.74;79.35
81057;BME280;70563;50.084;14.468;2023-07-31T00:38:58;98568.69;;;13.75;79.15
81057;BME280;70563;50.084;14.468;2023-07-31T00:41:24;98570.34;;;13.70;79.03
81057;BME280;70563;50.084;14.468;2023-07-31T00:43:49;98566.03;;;13.75;78.20
81057;BME280;70563;50.084;14.468;2023-07-31T00:46:14;98565.41;;;13.87;77.35
81057;BME280;70563;50.084;14.468;2023-07-31T00:48:40;98567.28;;;13.66;78.39
81057;BME280;70563;50.084;14.468;2023-07-31T00:51:07;98571.13;;;13.64;78.63
81057;BME280;70563;50.084;14.468;2023-07-31T00:53:32;98573.59;;;13.72;77.87
81057;BME280;70563;50.084;14.468;2023-07-31T00:55:58;98565.41;;;13.80;77.55
81057;BME280;70563;50.084;14.468;2023-07-31T00:58:24;98566.22;;;13.80;77.44
81057;BME280;70563;50.084;14.468;2023-07-31T01:00:49;98569.50;;;13.83;76.84
81057;BME280;70563;50.084;14.468;2023-07-31T01:03:16;98575.22;;;13.79;76.99
81057;BME280;70563;50.084;14.468;2023-07-31T01:08:41;98569.28;;;13.84;77.02
81057;BME280;70563;50.084;14.468;2023-07-31T01:11:15;98569.28;;;13.84;76.66
81057;BME280;70563;50.084;14.468;2023-07-31T01:13:42;98574.81;;;13.83;76.24
81057;BME280;70563;50.084;14.468;2023-07-31T01:16:08;98570.75;;;13.73;76.62
81057;BME280;70563;50.084;14.468;2023-07-31T01:18:33;98568.28;;;13.78;76.61
81057;BME280;70563;50.084;14.468;2023-07-31T01:21:12;98561.13;;;13.72;76.87
81057;BME280;70563;50.084;14.468;2023-07-31T01:26:39;98561.34;;;13.64;77.58
81057;BME280;70563;50.084;14.468;2023-07-31T01:29:16;98564.19;;;13.76;77.43
81057;BME280;70563;50.084;14.468;2023-07-31T01:31:45;98556.22;;;13.76;77.13
81057;BME280;70563;50.084;14.468;2023-07-31T01:34:12;98556.03;;;13.64;78.27
81057;BME280;70563;50.084;14.468;2023-07-31T01:36:39;98554.00;;;13.60;77.92
81057;BME280;70563;50.084;14.468;2023-07-31T01:39:04;98545.03;;;13.61;77.70
81057;BME280;70563;50.084;14.468;2023-07-31T01:41:29;98542.56;;;13.59;77.55
81057;BME280;70563;50.084;14.468;2023-07-31T01:43:55;98539.94;;;13.59;77.81
81057;BME280;70563;50.084;14.468;2023-07-31T01:46:20;98538.94;;;13.60;77.11
81057;BME280;70563;50.084;14.468;2023-07-31T01:48:45;98538.50;;;13.63;77.38
81057;BME280;70563;50.084;14.468;2023-07-31T01:51:11;98542.56;;;13.59;77.45
81057;BME280;70563;50.084;14.468;2023-07-31T01:53:36;98529.13;;;13.54;78.21
81057;BME280;70563;50.084;14.468;2023-07-31T01:56:01;98533.22;;;13.43;78.26
81057;BME280;70563;50.084;14.468;2023-07-31T01:58:27;98538.13;;;13.40;78.36
81057;BME280;70563;50.084;14.468;2023-07-31T02:00:52;98532.81;;;13.40;78.93
81057;BME280;70563;50.084;14.468;2023-07-31T02:03:17;98527.50;;;13.33;79.55
81057;BME280;70563;50.084;14.468;2023-07-31T02:05:47;98525.28;;;13.30;79.23
81057;BME280;70563;50.084;14.468;2023-07-31T02:08:13;98522.41;;;13.32;79.23
81057;BME280;70563;50.084;14.468;2023-07-31T02:10:38;98525.25;;;13.37;78.00
81057;BME280;70563;50.084;14.468;2023-07-31T02:13:04;98513.63;;;13.38;77.91
81057;BME280;70563;50.084;14.468;2023-07-31T02:15:30;98522.00;;;13.41;77.45
81057;BME280;70563;50.084;14.468;2023-07-31T02:17:55;98523.22;;;13.52;76.60
81057;BME280;70563;50.084;14.468;2023-07-31T02:20:21;98525.44;;;13.55;76.01
81057;BME280;70563;50.084;14.468;2023-07-31T02:22:46;98524.44;;;13.49;76.17
81057;BME280;70563;50.084;14.468;2023-07-31T02:25:11;98523.84;;;13.47;76.31
81057;BME280;70563;50.084;14.468;2023-07-31T02:27:37;98524.66;;;13.48;76.37
81057;BME280;70563;50.084;14.468;2023-07-31T02:30:02;98516.06;;;13.52;76.07
81057;BME280;70563;50.084;14.468;2023-07-31T02:32:28;98514.84;;;13.48;75.90
81057;BME280;70563;50.084;14.468;2023-07-31T02:34:53;98523.22;;;13.52;75.99
81057;BME280;70563;50.084;14.468;2023-07-31T02:37:18;98510.16;;;13.44;76.47
81057;BME280;70563;50.084;14.468;2023-07-31T02:39:44;98518.72;;;13.46;76.41
81057;BME280;70563;50.084;14.468;2023-07-31T02:42:09;98514.44;;;13.51;75.74
81057;BME280;70563;50.084;14.468;2023-07-31T02:44:34;98516.25;;;13.58;75.64
81057;BME280;70563;50.084;14.468;2023-07-31T02:47:00;98518.88;;;13.64;75.36
81057;BME280;70563;50.084;14.468;2023-07-31T02:49:25;98514.84;;;13.62;75.40
81057;BME280;70563;50.084;14.468;2023-07-31T02:51:50;98512.19;;;13.62;75.27
81057;BME280;70563;50.084;14.468;2023-07-31T02:54:16;98507.69;;;13.62;75.36
81057;BME280;70563;50.084;14.468;2023-07-31T02:56:41;98512.19;;;13.62;75.02
81057;BME280;70563;50.084;14.468;2023-07-31T02:59:06;98507.47;;;13.64;74.96
81057;BME280;70563;50.084;14.468;2023-07-31T03:01:32;98515.06;;;13.60;75.08
81057;BME280;70563;50.084;14.468;2023-07-31T03:03:57;98518.50;;;13.54;76.17
81057;BME280;70563;50.084;14.468;2023-07-31T03:06:23;98519.72;;;13.65;75.09
81057;BME280;70563;50.084;14.468;2023-07-31T03:08:48;98514.84;;;13.62;75.35
81057;BME280;70563;50.084;14.468;2023-07-31T03:11:13;98509.72;;;13.67;74.74
81057;BME280;70563;50.084;14.468;2023-07-31T03:13:39;98517.47;;;13.68;73.85
81057;BME280;70563;50.084;14.468;2023-07-31T03:16:04;98516.88;;;13.66;74.40
81057;BME280;70563;50.084;14.468;2023-07-31T03:18:29;98515.66;;;13.69;74.23
81057;BME280;70563;50.084;14.468;2023-07-31T03:20:55;98511.97;;;13.70;74.40
81057;BME280;70563;50.084;14.468;2023-07-31T03:23:20;98510.75;;;13.66;74.23
81057;BME280;70563;50.084;14.468;2023-07-31T03:25:58;98511.75;;;13.71;73.87
81057;BME280;70563;50.084;14.468;2023-07-31T03:28:24;98519.31;;;13.74;73.68
81057;BME280;70563;50.084;14.468;2023-07-31T03:30:50;98510.31;;;13.75;73.94
81057;BME280;70563;50.084;14.468;2023-07-31T03:33:16;98508.25;;;13.91;72.73
81057;BME280;70563;50.084;14.468;2023-07-31T03:35:41;98508.25;;;13.91;72.89
81057;BME280;70563;50.084;14.468;2023-07-31T03:38:06;98501.91;;;13.92;72.91
81057;BME280;70563;50.084;14.468;2023-07-31T03:40:32;98507.84;;;13.87;72.84
81057;BME280;70563;50.084;14.468;2023-07-31T03:42:57;98504.16;;;13.81;72.63
81057;BME280;70563;50.084;14.468;2023-07-31T03:45:22;98501.75;;;13.73;73.31
81057;BME280;70563;50.084;14.468;2023-07-31T03:47:48;98512.38;;;13.73;72.73
81057;BME280;70563;50.084;14.468;2023-07-31T03:50:13;98505.63;;;13.71;73.26
81057;BME280;70563;50.084;14.468;2023-07-31T03:52:38;98520.34;;;13.73;72.92
81057;BME280;70563;50.084;14.468;2023-07-31T03:55:04;98512.38;;;13.73;72.82
81057;BME280;70563;50.084;14.468;2023-07-31T03:57:29;98518.50;;;13.67;73.23
81057;BME280;70563;50.084;14.468;2023-07-31T03:59:57;98517.69;;;13.73;73.00
81057;BME280;70563;50.084;14.468;2023-07-31T04:02:23;98518.22;;;13.89;72.26
81057;BME280;70563;50.084;14.468;2023-07-31T04:04:48;98510.91;;;13.91;72.39
81057;BME280;70563;50.084;14.468;2023-07-31T04:07:14;98518.41;;;14.00;72.45
81057;BME280;70563;50.084;14.468;2023-07-31T04:09:39;98516.75;;;14.13;71.42
81057;BME280;70563;50.084;14.468;2023-07-31T04:12:05;98512.59;;;14.23;70.88
81057;BME280;70563;50.084;14.468;2023-07-31T04:14:30;98519.75;;;14.29;70.29
81057;BME280;70563;50.084;14.468;2023-07-31T04:16:55;98510.50;;;14.39;69.53
81057;BME280;70563;50.084;14.468;2023-07-31T04:19:21;98504.75;;;14.48;69.35
81057;BME280;70563;50.084;14.468;2023-07-31T04:21:46;98505.06;;;14.65;68.86
81057;BME280;70563;50.084;14.468;2023-07-31T04:24:11;98507.94;;;14.64;68.70
81057;BME280;70563;50.084;14.468;2023-07-31T04:26:37;98512.81;;;14.67;68.34
81057;BME280;70563;50.084;14.468;2023-07-31T04:29:02;98511.59;;;14.69;68.71
81057;BME280;70563;50.084;14.468;2023-07-31T04:31:27;98512.34;;;14.76;68.60
81057;BME280;70563;50.084;14.468;2023-07-31T04:33:53;98512.97;;;14.78;68.24
81057;BME280;70563;50.084;14.468;2023-07-31T04:36:18;98511.50;;;14.83;67.90
81057;BME280;70563;50.084;14.468;2023-07-31T04:38:43;98505.38;;;14.82;67.68
81057;BME280;70563;50.084;14.468;2023-07-31T04:41:09;98507.47;;;14.73;68.09
81057;BME280;70563;50.084;14.468;2023-07-31T04:43:34;98513.78;;;14.79;67.66
81057;BME280;70563;50.084;14.468;2023-07-31T04:45:59;98514.97;;;14.83;67.61
81057;BME280;70563;50.084;14.468;2023-07-31T04:48:25;98513.47;;;14.94;66.79
81057;BME280;70563;50.084;14.468;2023-07-31T04:50:50;98504.22;;;15.03;66.50
81057;BME280;70563;50.084;14.468;2023-07-31T04:53:15;98496.00;;;15.29;65.50
81057;BME280;70563;50.084;14.468;2023-07-31T04:55:41;98499.22;;;15.38;64.82
81057;BME280;70563;50.084;14.468;2023-07-31T04:58:06;98504.78;;;15.55;64.52
81057;BME280;70563;50.084;14.468;2023-07-31T05:00:32;98506.56;;;15.61;63.75
81057;BME280;70563;50.084;14.468;2023-07-31T05:02:57;98506.41;;;15.56;63.91
81057;BME280;70563;50.084;14.468;2023-07-31T05:05:23;98507.28;;;15.50;64.48
81057;BME280;70563;50.084;14.468;2023-07-31T05:07:48;98515.88;;;15.52;64.17
81057;BME280;70563;50.084;14.468;2023-07-31T05:10:13;98524.00;;;15.57;64.73
81057;BME280;70563;50.084;14.468;2023-07-31T05:12:39;98517.44;;;15.60;64.29
81057;BME280;70563;50.084;14.468;2023-07-31T05:15:05;98522.13;;;15.64;63.73
81057;BME280;70563;50.084;14.468;2023-07-31T05:17:30;98514.53;;;15.68;63.60
81057;BME280;70563;50.084;14.468;2023-07-31T05:19:55;98511.41;;;15.71;63.61
81057;BME280;70563;50.084;14.468;2023-07-31T05:22:21;98514.28;;;15.69;63.31
81057;BME280;70563;50.084;14.468;2023-07-31T05:24:46;98514.16;;;15.83;63.67
81057;BME280;70563;50.084;14.468;2023-07-31T05:27:11;98517.72;;;15.76;63.29
81057;BME280;70563;50.084;14.468;2023-07-31T05:29:40;98517.38;;;15.66;64.00
81057;BME280;70563;50.084;14.468;2023-07-31T05:32:06;98526.44;;;15.59;63.79
81057;BME280;70563;50.084;14.468;2023-07-31T05:34:31;98519.63;;;15.63;63.81
81057;BME280;70563;50.084;14.468;2023-07-31T05:36:57;98515.63;;;15.78;63.35
81057;BME280;70563;50.084;14.468;2023-07-31T05:39:22;98516.53;;;15.72;63.70
81057;BME280;70563;50.084;14.468;2023-07-31T05:41:47;98518.91;;;15.80;63.39
81057;BME280;70563;50.084;14.468;2023-07-31T05:44:13;98518.06;;;15.80;63.50
81057;BME280;70563;50.084;14.468;2023-07-31T05:46:38;98516.38;;;15.86;63.17
81057;BME280;70563;50.084;14.468;2023-07-31T05:49:03;98516.53;;;15.91;62.65
81057;BME280;70563;50.084;14.468;2023-07-31T05:51:29;98516.16;;;16.05;62.56
81057;BME280;70563;50.084;14.468;2023-07-31T05:53:54;98512.97;;;16.15;62.28
81057;BME280;70563;50.084;14.468;2023-07-31T05:56:20;98520.06;;;16.21;61.92
81057;BME280;70563;50.084;14.468;2023-07-31T05:58:45;98514.56;;;16.35;62.25
81057;BME280;70563;50.084;14.468;2023-07-31T06:01:10;98517.06;;;16.48;61.71
81057;BME280;70563;50.084;14.468;2023-07-31T06:03:36;98512.50;;;16.37;62.20
81057;BME280;70563;50.084;14.468;2023-07-31T06:06:01;98504.91;;;16.52;61.66
81057;BME280;70563;50.084;14.468;2023-07-31T06:08:26;98500.63;;;16.51;61.56
81057;BME280;70563;50.084;14.468;2023-07-31T06:10:52;98501.03;;;16.66;60.38
81057;BME280;70563;50.084;14.468;2023-07-31T06:13:17;98496.25;;;16.87;59.77
81057;BME280;70563;50.084;14.468;2023-07-31T06:15:43;98490.03;;;17.16;59.42
81057;BME280;70563;50.084;14.468;2023-07-31T06:18:08;98480.16;;;17.05;59.51
81057;BME280;70563;50.084;14.468;2023-07-31T06:20:34;98483.53;;;17.12;59.05
81057;BME280;70563;50.084;14.468;2023-07-31T06:23:00;98492.72;;;17.63;57.62
81057;BME280;70563;50.084;14.468;2023-07-31T06:25:25;98482.13;;;18.03;56.23
81057;BME280;70563;50.084;14.468;2023-07-31T06:27:51;98486.69;;;18.32;55.37
81057;BME280;70563;50.084;14.468;2023-07-31T06:30:16;98477.03;;;18.59;54.44
81057;BME280;70563;50.084;14.468;2023-07-31T06:32:41;98474.19;;;18.94;53.70
81057;BME280;70563;50.084;14.468;2023-07-31T06:35:08;98477.78;;;19.00;53.37
81057;BME280;70563;50.084;14.468;2023-07-31T06:37:33;98467.63;;;19.02;53.13
81057;BME280;70563;50.084;14.468;2023-07-31T06:39:58;98471.97;;;18.46;54.88
81057;BME280;70563;50.084;14.468;2023-07-31T06:42:24;98473.41;;;18.37;55.55
81057;BME280;70563;50.084;14.468;2023-07-31T06:44:49;98473.63;;;18.64;54.98
81057;BME280;70563;50.084;14.468;2023-07-31T06:47:15;98469.16;;;18.98;53.87
81057;BME280;70563;50.084;14.468;2023-07-31T06:49:40;98470.78;;;19.16;53.15
81057;BME280;70563;50.084;14.468;2023-07-31T06:52:06;98470.34;;;18.73;53.99
81057;BME280;70563;50.084;14.468;2023-07-31T06:54:31;98469.59;;;18.61;54.96
81057;BME280;70563;50.084;14.468;2023-07-31T06:56:57;98472.13;;;18.11;56.15
81057;BME280;70563;50.084;14.468;2023-07-31T06:59:22;98481.03;;;18.16;56.46
81057;BME280;70563;50.084;14.468;2023-07-31T07:01:48;98482.19;;;18.20;56.33
81057;BME280;70563;50.084;14.468;2023-07-31T07:04:13;98478.81;;;18.13;56.90
81057;BME280;70563;50.084;14.468;2023-07-31T07:06:39;98472.38;;;18.38;56.31
81057;BME280;70563;50.084;14.468;2023-07-31T07:09:04;98474.69;;;18.74;55.38
81057;BME280;70563;50.084;14.468;2023-07-31T07:11:30;98474.75;;;18.79;54.95
81057;BME280;70563;50.084;14.468;2023-07-31T07:13:55;98473.13;;;19.12;53.82
81057;BME280;70563;50.084;14.468;2023-07-31T07:16:20;98465.25;;;19.95;51.91
81057;BME280;70563;50.084;14.468;2023-07-31T07:18:46;98460.03;;;20.54;49.65
81057;BME280;70563;50.084;14.468;2023-07-31T07:21:11;98464.25;;;19.79;52.10
81057;BME280;70563;50.084;14.468;2023-07-31T07:23:41;98465.78;;;19.58;52.87
81057;BME280;70563;50.084;14.468;2023-07-31T07:26:06;98475.00;;;19.45;52.68
81057;BME280;70563;50.084;14.468;2023-07-31T07:28:32;98468.84;;;19.28;53.27
81057;BME280;70563;50.084;14.468;2023-07-31T07:30:57;98462.34;;;19.07;53.55
81057;BME280;70563;50.084;14.468;2023-07-31T07:33:23;98454.72;;;19.33;52.70
81057;BME280;70563;50.084;14.468;2023-07-31T07:35:48;98465.00;;;19.41;52.80
81057;BME280;70563;50.084;14.468;2023-07-31T07:38:14;98468.38;;;19.31;53.02
81057;BME280;70563;50.084;14.468;2023-07-31T07:40:40;98473.44;;;19.49;51.90
81057;BME280;70563;50.084;14.468;2023-07-31T07:43:06;98479.28;;;19.29;52.07
81057;BME280;70563;50.084;14.468;2023-07-31T07:45:31;98458.16;;;19.11;53.10
81057;BME280;70563;50.084;14.468;2023-07-31T07:47:57;98462.34;;;19.07;53.42
81057;BME280;70563;50.084;14.468;2023-07-31T07:50:24;98472.19;;;19.18;53.30
81057;BME280;70563;50.084;14.468;2023-07-31T07:52:50;98461.41;;;19.13;53.37
81057;BME280;70563;50.084;14.468;2023-07-31T07:55:15;98460.44;;;19.58;52.49
81057;BME280;70563;50.084;14.468;2023-07-31T07:57:40;98464.38;;;19.34;52.35
81057;BME280;70563;50.084;14.468;2023-07-31T08:00:06;98480.31;;;19.79;51.72
81057;BME280;70563;50.084;14.468;2023-07-31T08:02:32;98471.22;;;19.80;51.46
81057;BME280;70563;50.084;14.468;2023-07-31T08:04:57;98482.19;;;20.00;50.82
81057;BME280;70563;50.084;14.468;2023-07-31T08:07:22;98483.25;;;19.77;51.38
81057;BME280;70563;50.084;14.468;2023-07-31T08:09:48;98476.75;;;19.73;51.26
81057;BME280;70563;50.084;14.468;2023-07-31T08:12:13;98473.19;;;19.51;51.41
81057;BME280;70563;50.084;14.468;2023-07-31T08:14:39;98471.09;;;19.70;51.64
81057;BME280;70563;50.084;14.468;2023-07-31T08:17:04;98477.22;;;19.87;50.63
81057;BME280;70563;50.084;14.468;2023-07-31T08:19:29;98472.72;;;19.37;51.95
81057;BME280;70563;50.084;14.468;2023-07-31T08:21:55;98484.22;;;19.54;52.07
81057;BME280;70563;50.084;14.468;2023-07-31T08:24:20;98477.19;;;19.32;51.87
81057;BME280;70563;50.084;14.468;2023-07-31T08:26:46;98491.13;;;19.34;52.04
81057;BME280;70563;50.084;14.468;2023-07-31T08:29:12;98495.84;;;18.93;53.20
81057;BME280;70563;50.084;14.468;2023-07-31T08:31:37;98491.69;;;18.85;53.66
81057;BME280;70563;50.084;14.468;2023-07-31T08:34:03;98493.16;;;18.76;53.77
81057;BME280;70563;50.084;14.468;2023-07-31T08:36:28;98478.00;;;18.82;54.09
81057;BME280;70563;50.084;14.468;2023-07-31T08:38:53;98470.47;;;18.78;54.23
81057;BME280;70563;50.084;14.468;2023-07-31T08:41:20;98494.69;;;18.72;54.61
81057;BME280;70563;50.084;14.468;2023-07-31T08:43:46;98480.78;;;18.58;55.19
81057;BME280;70563;50.084;14.468;2023-07-31T08:46:12;98479.16;;;18.57;55.44
81057;BME280;70563;50.084;14.468;2023-07-31T08:48:41;98473.22;;;18.55;55.59
81057;BME280;70563;50.084;14.468;2023-07-31T08:51:06;98479.63;;;18.54;55.83
81057;BME280;70563;50.084;14.468;2023-07-31T08:53:32;98487.06;;;18.52;55.75
81057;BME280;70563;50.084;14.468;2023-07-31T08:55:58;98478.78;;;18.65;55.97
81057;BME280;70563;50.084;14.468;2023-07-31T08:58:25;98476.03;;;18.77;55.44
81057;BME280;70563;50.084;14.468;2023-07-31T09:00:52;98485.94;;;18.76;55.74
81057;BME280;70563;50.084;14.468;2023-07-31T09:03:18;98479.63;;;18.83;55.50
81057;BME280;70563;50.084;14.468;2023-07-31T09:05:46;98474.13;;;18.89;55.54
81057;BME280;70563;50.084;14.468;2023-07-31T09:08:13;98472.25;;;18.90;55.45
81057;BME280;70563;50.084;14.468;2023-07-31T09:10:44;98471.28;;;18.96;55.32
81057;BME280;70563;50.084;14.468;2023-07-31T09:13:11;98478.47;;;18.95;55.42
81057;BME280;70563;50.084;14.468;2023-07-31T09:15:37;98482.06;;;19.01;55.36
81057;BME280;70563;50.084;14.468;2023-07-31T09:18:04;98472.59;;;19.10;54.89
81057;BME280;70563;50.084;14.468;2023-07-31T09:20:30;98474.28;;;18.99;55.51
81057;BME280;70563;50.084;14.468;2023-07-31T09:23:05;98472.72;;;19.20;55.12
81057;BME280;70563;50.084;14.468;2023-07-31T09:25:31;98477.53;;;19.18;55.08
81057;BME280;70563;50.084;14.468;2023-07-31T09:28:01;98476.84;;;19.45;54.48
81057;BME280;70563;50.084;14.468;2023-07-31T09:30:27;98474.63;;;19.75;53.88
81057;BME280;70563;50.084;14.468;2023-07-31T09:33:01;98479.44;;;20.17;52.88
81057;BME280;70563;50.084;14.468;2023-07-31T09:35:31;98464.59;;;20.32;52.00
81057;BME280;70563;50.084;14.468;2023-07-31T09:38:05;98462.72;;;20.32;52.23
81057;BME280;70563;50.084;14.468;2023-07-31T09:40:39;98469.66;;;20.77;50.84
81057;BME280;70563;50.084;14.468;2023-07-31T09:43:13;98466.91;;;20.72;51.41
81057;BME280;70563;50.084;14.468;2023-07-31T09:45:43;98463.19;;;21.10;50.33
81057;BME280;70563;50.084;14.468;2023-07-31T09:48:16;98464.66;;;21.28;50.07
81057;BME280;70563;50.084;14.468;2023-07-31T09:50:43;98458.91;;;21.09;50.43
81057;BME280;70563;50.084;14.468;2023-07-31T09:53:09;98442.69;;;21.31;49.85
81057;BME280;70563;50.084;14.468;2023-07-31T09:55:36;98450.38;;;21.17;50.29
81057;BME280;70563;50.084;14.468;2023-07-31T09:58:07;98450.66;;;21.16;50.01
81057;BME280;70563;50.084;14.468;2023-07-31T10:00:34;98442.06;;;21.56;49.15
81057;BME280;70563;50.084;14.468;2023-07-31T10:03:01;98425.94;;;22.14;47.69
81057;BME280;70563;50.084;14.468;2023-07-31T10:05:34;98423.34;;;22.80;46.14
81057;BME280;70563;50.084;14.468;2023-07-31T10:07:59;98424.09;;;23.67;43.74
81057;BME280;70563;50.084;14.468;2023-07-31T10:10:25;98416.81;;;25.01;40.59
81057;BME280;70563;50.084;14.468;2023-07-31T10:12:53;98408.91;;;26.30;36.73
81057;BME280;70563;50.084;14.468;2023-07-31T10:15:19;98406.91;;;27.06;35.61
81057;BME280;70563;50.084;14.468;2023-07-31T10:17:48;98404.41;;;27.42;35.10
81057;BME280;70563;50.084;14.468;2023-07-31T10:20:15;98409.69;;;26.68;36.63
81057;BME280;70563;50.084;14.468;2023-07-31T10:22:44;98399.66;;;26.68;36.43
81057;BME280;70563;50.084;14.468;2023-07-31T10:25:12;98394.06;;;25.36;38.80
81057;BME280;70563;50.084;14.468;2023-07-31T10:27:38;98390.91;;;25.00;39.89
81057;BME280;70563;50.084;14.468;2023-07-31T10:30:06;98386.25;;;23.83;41.97
81057;BME280;70563;50.084;14.468;2023-07-31T10:32:33;98383.75;;;23.32;43.15
81057;BME280;70563;50.084;14.468;2023-07-31T10:35:01;98377.25;;;23.38;43.17
81057;BME280;70563;50.084;14.468;2023-07-31T10:37:50;98381.47;;;23.69;42.81
81057;BME280;70563;50.084;14.468;2023-07-31T10:40:23;98367.66;;;23.86;42.13
81057;BME280;70563;50.084;14.468;2023-07-31T10:45:35;98370.03;;;23.13;43.59
81057;BME280;70563;50.084;14.468;2023-07-31T10:48:03;98358.59;;;23.57;43.02
81057;BME280;70563;50.084;14.468;2023-07-31T10:50:30;98361.31;;;24.11;42.21
81057;BME280;70563;50.084;14.468;2023-07-31T10:52:58;98358.28;;;23.73;42.24
81057;BME280;70563;50.084;14.468;2023-07-31T10:55:40;98354.94;;;24.41;40.92
81057;BME280;70563;50.084;14.468;2023-07-31T10:58:11;98358.41;;;25.10;38.66
81057;BME280;70563;50.084;14.468;2023-07-31T11:00:41;98350.25;;;25.15;38.98
81057;BME280;70563;50.084;14.468;2023-07-31T11:03:10;98346.31;;;25.02;39.26
81057;BME280;70563;50.084;14.468;2023-07-31T11:08:18;98338.22;;;25.50;38.26
81057;BME280;70563;50.084;14.468;2023-07-31T11:10:45;98328.03;;;25.66;38.57
81057;BME280;70563;50.084;14.468;2023-07-31T11:13:11;98326.47;;;25.84;37.81
81057;BME280;70563;50.084;14.468;2023-07-31T11:15:37;98332.31;;;26.10;37.29
81057;BME280;70563;50.084;14.468;2023-07-31T11:18:03;98325.59;;;26.26;36.77
81057;BME280;70563;50.084;14.468;2023-07-31T11:20:32;98321.41;;;26.86;36.26
81057;BME280;70563;50.084;14.468;2023-07-31T11:23:00;98320.63;;;26.66;35.61
81057;BME280;70563;50.084;14.468;2023-07-31T11:25:25;98328.88;;;25.19;37.81
81057;BME280;70563;50.084;14.468;2023-07-31T11:27:51;98336.16;;;24.89;38.75
81057;BME280;70563;50.084;14.468;2023-07-31T11:30:19;98328.41;;;24.53;39.71
81057;BME280;70563;50.084;14.468;2023-07-31T11:32:45;98333.41;;;23.87;40.60
81057;BME280;70563;50.084;14.468;2023-07-31T11:35:13;98325.69;;;23.70;41.17
81057;BME280;70563;50.084;14.468;2023-07-31T11:37:40;98322.22;;;25.35;37.77
81057;BME280;70563;50.084;14.468;2023-07-31T11:40:07;98324.84;;;25.40;37.07
81057;BME280;70563;50.084;14.468;2023-07-31T11:42:34;98312.78;;;25.33;37.76
81057;BME280;70563;50.084;14.468;2023-07-31T11:45:05;98322.25;;;24.77;38.54
81057;BME280;70563;50.084;14.468;2023-07-31T11:47:33;98335.75;;;24.43;38.92
81057;BME280;70563;50.084;14.468;2023-07-31T11:50:00;98326.63;;;24.39;39.98
81057;BME280;70563;50.084;14.468;2023-07-31T11:52:28;98328.72;;;24.47;40.14
81057;BME280;70563;50.084;14.468;2023-07-31T11:54:55;98318.13;;;25.38;37.50
81057;BME280;70563;50.084;14.468;2023-07-31T11:57:21;98315.34;;;26.89;34.32
81057;BME280;70563;50.084;14.468;2023-07-31T11:59:48;98312.91;;;26.41;35.69
81057;BME280;70563;50.084;14.468;2023-07-31T12:02:13;98308.59;;;25.64;36.42
81057;BME280;70563;50.084;14.468;2023-07-31T12:04:39;98300.53;;;26.02;35.78
81057;BME280;70563;50.084;14.468;2023-07-31T12:07:05;98294.31;;;25.83;36.28
81057;BME280;70563;50.084;14.468;2023-07-31T12:09:30;98291.69;;;25.35;37.07
81057;BME280;70563;50.084;14.468;2023-07-31T12:11:56;98286.50;;;26.00;36.79
81057;BME280;70563;50.084;14.468;2023-07-31T12:14:24;98284.59;;;26.52;35.07
81057;BME280;70563;50.084;14.468;2023-07-31T12:16:57;98279.72;;;26.68;35.10
81057;BME280;70563;50.084;14.468;2023-07-31T12:19:25;98280.13;;;26.61;34.80
81057;BME280;70563;50.084;14.468;2023-07-31T12:21:52;98280.81;;;25.40;36.26
81057;BME280;70563;50.084;14.468;2023-07-31T12:24:19;98279.59;;;25.70;35.65
81057;BME280;70563;50.084;14.468;2023-07-31T12:26:46;98276.09;;;26.07;34.96
81057;BME280;70563;50.084;14.468;2023-07-31T12:29:14;98272.69;;;25.83;35.53
81057;BME280;70563;50.084;14.468;2023-07-31T12:31:42;98269.47;;;25.99;35.30
81057;BME280;70563;50.084;14.468;2023-07-31T12:34:16;98277.91;;;25.55;36.56
81057;BME280;70563;50.084;14.468;2023-07-31T12:36:42;98265.28;;;26.40;34.70
81057;BME280;70563;50.084;14.468;2023-07-31T12:39:08;98256.19;;;26.96;33.32
81057;BME280;70563;50.084;14.468;2023-07-31T12:41:33;98259.78;;;27.05;33.20
81057;BME280;70563;50.084;14.468;2023-07-31T12:43:59;98260.22;;;27.26;33.31
81057;BME280;70563;50.084;14.468;2023-07-31T12:46:24;98255.22;;;28.06;31.37
81057;BME280;70563;50.084;14.468;2023-07-31T12:48:49;98263.88;;;26.61;33.66
81057;BME280;70563;50.084;14.468;2023-07-31T12:51:15;98256.13;;;26.03;34.91
81057;BME280;70563;50.084;14.468;2023-07-31T12:53:40;98250.75;;;25.65;34.94
81057;BME280;70563;50.084;14.468;2023-07-31T12:56:05;98240.50;;;25.43;35.23